createdAt,value
2023-09-07T00:02:39.391Z,2.9
2023-09-07T00:05:34.016Z,2.6
2023-09-07T00:08:35.944Z,2.9
2023-09-07T00:11:37.898Z,2.6
2023-09-07T00:14:39.853Z,2.5
2023-09-07T00:17:41.854Z,2.8
2023-09-07T00:20:43.755Z,2.6
2023-09-07T00:23:45.720Z,2.6
2023-09-07T00:26:47.653Z,3.1
2023-09-07T00:29:49.594Z,3.3
2023-09-07T00:32:51.545Z,3.1
2023-09-07T00:35:53.518Z,3.2
2023-09-07T00:38:55.532Z,3.4
2023-09-07T00:41:57.390Z,3.4
2023-09-07T00:44:59.345Z,3.5
2023-09-07T00:48:01.327Z,3.3
2023-09-07T00:51:03.254Z,3.3
2023-09-07T00:54:05.207Z,3.4
2023-09-07T00:57:07.144Z,3.6
2023-09-07T01:00:09.093Z,3.6
2023-09-07T01:03:11.144Z,3.6
2023-09-07T01:06:12.999Z,3.5
2023-09-07T01:09:14.949Z,3.3
2023-09-07T01:12:16.910Z,3.5
2023-09-07T01:15:18.854Z,3.9
2023-09-07T01:18:23.942Z,3.4
2023-09-07T01:21:22.751Z,3.1
2023-09-07T01:24:24.678Z,3.4
2023-09-07T01:27:26.643Z,3.6
2023-09-07T01:30:28.598Z,3.2
2023-09-07T01:33:30.630Z,3.2
2023-09-07T01:36:32.574Z,3.7
2023-09-07T01:39:34.523Z,3.8
2023-09-07T01:42:36.492Z,3.6
2023-09-07T01:45:38.426Z,3.7
2023-09-07T01:48:40.408Z,3.6
2023-09-07T01:51:42.315Z,3.2
2023-09-07T01:54:44.289Z,3.8
2023-09-07T01:57:46.257Z,3.7
2023-09-07T02:00:48.210Z,3.7
2023-09-07T02:03:50.143Z,3.6
2023-09-07T02:06:52.068Z,3.5
2023-09-07T02:09:54.050Z,3.3
2023-09-07T02:12:55.975Z,3.4
2023-09-07T02:15:57.930Z,3.6
2023-09-07T02:18:59.907Z,3.5
2023-09-07T02:22:01.812Z,3.5
2023-09-07T02:25:03.790Z,3.8
2023-09-07T02:28:05.734Z,3.7
2023-09-07T02:31:07.845Z,3.3
2023-09-07T02:34:09.796Z,4.3
2023-09-07T02:37:11.616Z,3.6
2023-09-07T02:40:13.580Z,3.7
2023-09-07T02:43:15.518Z,3.7
2023-09-07T02:46:17.517Z,3.6
2023-09-07T02:49:19.418Z,3.4
2023-09-07T02:52:21.354Z,3.7
2023-09-07T02:55:23.297Z,3.6
2023-09-07T02:58:25.261Z,3.5
2023-09-07T03:01:27.249Z,3.5
2023-09-07T03:04:29.177Z,3.8
2023-09-07T03:07:31.147Z,3.6
2023-09-07T03:10:33.116Z,3.4
2023-09-07T03:13:35.040Z,3.8
2023-09-07T03:16:37.030Z,3.4
2023-09-07T03:19:38.910Z,4
2023-09-07T03:22:40.851Z,3.3
2023-09-07T03:25:42.802Z,3.4
2023-09-07T03:28:44.749Z,4
2023-09-07T03:31:46.816Z,4.2
2023-09-07T03:34:48.678Z,3.8
2023-09-07T03:37:50.634Z,3.6
2023-09-07T03:40:52.563Z,3.6
2023-09-07T03:43:54.517Z,3.7
2023-09-07T03:46:56.522Z,4.2
2023-09-07T03:49:58.434Z,3.4
2023-09-07T03:53:00.404Z,3.5
2023-09-07T03:56:02.327Z,4.2
2023-09-07T03:59:04.276Z,3.8
2023-09-07T04:02:06.380Z,3.8
2023-09-07T04:05:08.173Z,3.5
2023-09-07T04:08:10.121Z,3.4
2023-09-07T04:11:12.084Z,4.2
2023-09-07T04:14:14.055Z,4.4
2023-09-07T04:17:15.965Z,4.2
2023-09-07T04:20:17.941Z,4.2
2023-09-07T04:23:19.878Z,3.5
2023-09-07T04:26:21.835Z,4.3
2023-09-07T04:29:23.787Z,4.6
2023-09-07T04:32:25.804Z,4.6
2023-09-07T04:35:27.731Z,4.1
2023-09-07T04:38:29.790Z,4.3
2023-09-07T04:41:31.629Z,4.7
2023-09-07T04:44:33.552Z,4
2023-09-07T04:47:35.563Z,4.5
2023-09-07T04:50:37.454Z,3.7
2023-09-07T04:53:39.397Z,3.8
2023-09-07T04:56:41.387Z,4.8
2023-09-07T04:59:43.323Z,4.1
2023-09-07T05:02:45.281Z,4.5
2023-09-07T05:05:47.183Z,4.4
2023-09-07T05:08:49.134Z,4.9
2023-09-07T05:11:51.085Z,4.1
2023-09-07T05:14:53.024Z,5
2023-09-07T05:17:54.980Z,4.9
2023-09-07T05:20:56.916Z,4.2
2023-09-07T05:23:58.884Z,4.2
2023-09-07T05:27:00.819Z,4.3
2023-09-07T05:30:02.778Z,4
2023-09-07T05:33:04.739Z,4.2
2023-09-07T05:36:06.678Z,3.8
2023-09-07T05:39:08.618Z,3.3
2023-09-07T05:42:10.575Z,3.5
2023-09-07T05:45:12.524Z,3.6
2023-09-07T05:48:14.511Z,4.1
2023-09-07T05:51:16.417Z,4
2023-09-07T05:54:18.375Z,4.3
2023-09-07T05:57:20.310Z,4.5
2023-09-07T06:00:22.281Z,4.1
2023-09-07T06:03:24.306Z,4
2023-09-07T06:06:26.148Z,4.4
2023-09-07T06:09:28.099Z,3.7
2023-09-07T06:12:30.057Z,4.4
2023-09-07T06:15:32.046Z,4.3
2023-09-07T06:18:34.152Z,3.5
2023-09-07T06:21:35.882Z,3.1
2023-09-07T06:24:37.832Z,3.5
2023-09-07T06:27:39.804Z,4.4
2023-09-07T06:30:41.751Z,4.1
2023-09-07T06:33:43.689Z,4.1
2023-09-07T06:36:48.448Z,3.7
2023-09-07T06:39:47.590Z,4
2023-09-07T06:42:49.568Z,4
2023-09-07T06:45:51.494Z,3.8
2023-09-07T06:48:53.426Z,4.2
2023-09-07T06:51:55.452Z,3.7
2023-09-07T06:54:57.342Z,3.9
2023-09-07T06:57:59.392Z,3.4
2023-09-07T07:01:01.245Z,3.5
2023-09-07T07:04:03.358Z,4
2023-09-07T07:07:05.196Z,3.3
2023-09-07T07:10:07.132Z,3.9
2023-09-07T07:13:09.089Z,3.4
2023-09-07T07:16:11.156Z,4
2023-09-07T07:19:13.016Z,3.7
2023-09-07T07:22:14.928Z,3.4
2023-09-07T07:25:16.890Z,3.1
2023-09-07T07:28:18.844Z,3.5
2023-09-07T07:31:20.795Z,3.3
2023-09-07T07:34:22.746Z,3.5
2023-09-07T07:37:24.686Z,3.4
2023-09-07T07:40:26.624Z,3.2
2023-09-07T07:43:28.602Z,3.1
2023-09-07T07:46:30.595Z,3.7
2023-09-07T07:49:32.501Z,3.5
2023-09-07T07:52:34.448Z,3.1
2023-09-07T07:55:36.379Z,3.8
2023-09-07T07:58:38.327Z,3.3
2023-09-07T08:01:40.308Z,3.3
2023-09-07T08:04:42.343Z,3.2
2023-09-07T08:07:44.216Z,3.1
2023-09-07T08:10:46.163Z,2.7
2023-09-07T08:13:48.106Z,3.4
2023-09-07T08:16:50.142Z,3.5
2023-09-07T08:19:52.015Z,2.9
2023-09-07T08:22:54.030Z,2.9
2023-09-07T08:25:55.950Z,3.3
2023-09-07T08:28:57.878Z,2.8
2023-09-07T08:31:59.857Z,3.4
2023-09-07T08:35:01.880Z,2.9
2023-09-07T08:38:03.778Z,3.1
2023-09-07T08:41:05.732Z,3.4
2023-09-07T08:44:07.701Z,3.3
2023-09-07T08:47:09.636Z,3.3
2023-09-07T08:50:11.621Z,3.3
2023-09-07T08:53:13.547Z,3
2023-09-07T08:56:15.621Z,3.9
2023-09-07T08:59:17.574Z,3.4
2023-09-07T09:02:22.712Z,3.4
2023-09-07T09:05:24.675Z,3.3
2023-09-07T09:08:26.610Z,3.2
2023-09-07T09:11:28.557Z,2.8
2023-09-07T09:14:30.508Z,3.4
2023-09-07T09:17:32.561Z,3.1
2023-09-07T09:20:34.469Z,3.4
2023-09-07T09:23:36.439Z,3.3
2023-09-07T09:26:38.366Z,2.7
2023-09-07T09:29:40.319Z,2.7
2023-09-07T09:32:42.262Z,3.2
2023-09-07T09:35:44.233Z,2.8
2023-09-07T09:38:46.165Z,3.1
2023-09-07T09:41:48.129Z,3.5
2023-09-07T09:44:50.080Z,3.4
2023-09-07T09:47:52.063Z,3.1
2023-09-07T09:50:54.014Z,3.3
2023-09-07T09:53:55.975Z,3.1
2023-09-07T09:56:57.922Z,3.2
2023-09-07T09:59:59.901Z,3.2
2023-09-07T10:03:02.006Z,3.2
2023-09-07T10:06:03.845Z,3
2023-09-07T10:09:05.756Z,2.8
2023-09-07T10:12:07.750Z,2.8
2023-09-07T10:15:09.689Z,3.6
2023-09-07T10:18:11.671Z,3.2
2023-09-07T10:21:13.596Z,3.3
2023-09-07T10:24:15.532Z,2.6
2023-09-07T10:27:17.483Z,3.1
2023-09-07T10:30:19.460Z,2.8
2023-09-07T10:33:21.488Z,2.4
2023-09-07T10:36:23.346Z,3.4
2023-09-07T10:39:25.300Z,2.6
2023-09-07T10:42:27.425Z,3.2
2023-09-07T10:45:29.324Z,3
2023-09-07T10:48:31.238Z,2.8
2023-09-07T10:51:33.097Z,3.1
2023-09-07T10:54:35.062Z,2.7
2023-09-07T10:57:37.012Z,3.1
2023-09-07T11:00:38.978Z,3.1
2023-09-07T11:03:40.984Z,2.7
2023-09-07T11:06:42.922Z,3.1
2023-09-07T11:09:45.008Z,2.6
2023-09-07T11:12:46.829Z,3
2023-09-07T11:15:48.843Z,3.1
2023-09-07T11:18:50.773Z,3
2023-09-07T11:21:52.685Z,2.4
2023-09-07T11:24:54.643Z,2.6
2023-09-07T11:27:56.629Z,2.8
2023-09-07T11:30:58.579Z,3.1
2023-09-07T11:34:00.521Z,2.9
2023-09-07T11:37:02.480Z,2.9
2023-09-07T11:40:04.420Z,2.8
2023-09-07T11:43:06.375Z,2.5
2023-09-07T11:46:09.988Z,2.5
2023-09-07T11:49:10.854Z,2.7
2023-09-07T11:52:12.245Z,3.2
2023-09-07T11:55:14.221Z,3
2023-09-07T11:58:16.142Z,2.8
2023-09-07T12:01:18.173Z,3.3
2023-09-07T12:04:20.045Z,2.7
2023-09-07T12:07:21.978Z,2.8
2023-09-07T12:10:23.944Z,3
2023-09-07T12:13:25.868Z,2.7
2023-09-07T12:16:27.930Z,2.8
2023-09-07T12:19:29.757Z,3
2023-09-07T12:22:31.713Z,2.9
2023-09-07T12:25:33.675Z,2.8
2023-09-07T12:28:35.609Z,3.2
2023-09-07T12:31:37.559Z,2.9
2023-09-07T12:34:39.508Z,2.6
2023-09-07T12:37:41.472Z,2.8
2023-09-07T12:40:43.410Z,2.6
2023-09-07T12:43:45.361Z,2.9
2023-09-07T12:46:47.302Z,2.8
2023-09-07T12:49:49.263Z,2.5
2023-09-07T12:52:51.233Z,2.8
2023-09-07T12:55:53.161Z,2.3
2023-09-07T12:58:55.143Z,2.4
2023-09-07T13:01:57.102Z,2.7
2023-09-07T13:04:59.072Z,2.5
2023-09-07T13:08:01.043Z,2.9
2023-09-07T13:11:02.992Z,2.8
2023-09-07T13:14:06.286Z,2.5
2023-09-07T13:17:06.995Z,2.4
2023-09-07T13:20:08.967Z,2.8
2023-09-07T13:23:10.883Z,2.8
2023-09-07T13:26:12.836Z,2.7
2023-09-07T13:29:14.790Z,2.5
2023-09-07T13:32:16.725Z,3.1
2023-09-07T13:35:18.682Z,2.8
2023-09-07T13:38:20.640Z,2.9
2023-09-07T13:41:22.573Z,3
2023-09-07T13:44:24.538Z,2.9
2023-09-07T13:47:26.490Z,2.6
2023-09-07T13:50:28.438Z,3
2023-09-07T13:53:30.619Z,2.7
2023-09-07T13:56:32.331Z,2.6
2023-09-07T13:59:34.281Z,2.7
2023-09-07T14:02:36.336Z,3
2023-09-07T14:05:38.192Z,2.6
2023-09-07T14:08:40.191Z,2.5
2023-09-07T14:11:42.079Z,2.9
2023-09-07T14:14:44.011Z,3.2
2023-09-07T14:17:45.982Z,3
2023-09-07T14:20:47.908Z,3
2023-09-07T14:23:49.912Z,3
2023-09-07T14:26:51.811Z,3
2023-09-07T14:29:53.755Z,2.6
2023-09-07T14:32:55.729Z,3
2023-09-07T14:35:57.644Z,2.9
2023-09-07T14:38:59.593Z,3.2
2023-09-07T14:42:01.582Z,2.9
2023-09-07T14:45:03.653Z,2.9
2023-09-07T14:48:05.661Z,2.7
2023-09-07T14:51:07.547Z,2.8
2023-09-07T14:54:09.491Z,2.6
2023-09-07T14:57:11.446Z,2.8
2023-09-07T15:00:13.375Z,2.9
2023-09-07T15:03:15.335Z,2.7
2023-09-07T15:06:17.284Z,3.1
2023-09-07T15:09:19.233Z,2.8
2023-09-07T15:12:21.220Z,2.9
2023-09-07T15:15:23.133Z,3.1
2023-09-07T15:18:25.228Z,2.7
2023-09-07T15:21:27.056Z,2.8
2023-09-07T15:24:29.005Z,2.9
2023-09-07T15:27:30.961Z,2.7
2023-09-07T15:30:32.885Z,2.5
2023-09-07T15:33:34.899Z,2.3
2023-09-07T15:36:36.827Z,2.5
2023-09-07T15:39:38.788Z,2.9
2023-09-07T15:42:40.716Z,2.9
2023-09-07T15:45:42.689Z,2.6
2023-09-07T15:48:44.601Z,2.7
2023-09-07T15:51:46.548Z,2.6
2023-09-07T15:54:48.558Z,3.1
2023-09-07T15:57:50.503Z,2.6
2023-09-07T16:00:52.459Z,3.1
2023-09-07T16:03:54.469Z,2.8
2023-09-07T16:06:56.368Z,2.8
2023-09-07T16:09:58.310Z,3.2
2023-09-07T16:13:00.346Z,2.6
2023-09-07T16:16:02.238Z,3.2
2023-09-07T16:19:04.239Z,2.8
2023-09-07T16:22:06.139Z,2.5
2023-09-07T16:25:08.094Z,2.4
2023-09-07T16:28:10.057Z,2.8
2023-09-07T16:31:12.045Z,2.8
2023-09-07T16:34:13.949Z,2.7
2023-09-07T16:37:15.902Z,3.4
2023-09-07T16:40:17.842Z,3
2023-09-07T16:43:19.796Z,2.9
2023-09-07T16:46:21.778Z,2.9
2023-09-07T16:49:23.762Z,3
2023-09-07T16:52:25.627Z,3.1
2023-09-07T16:55:27.582Z,2.7
2023-09-07T16:58:50.049Z,3.1
2023-09-07T17:01:31.585Z,2.9
2023-09-07T17:04:33.484Z,2.9
2023-09-07T17:07:35.418Z,2.9
2023-09-07T17:10:37.403Z,2.8
2023-09-07T17:13:45.048Z,3
2023-09-07T17:16:41.282Z,3.4
2023-09-07T17:19:43.237Z,2.7
2023-09-07T17:22:45.187Z,3.2
2023-09-07T17:25:47.124Z,3.1
2023-09-07T17:28:49.072Z,2.7
2023-09-07T17:31:51.061Z,2.6
2023-09-07T17:34:52.972Z,2.3
2023-09-07T17:37:54.936Z,2.5
2023-09-07T17:40:56.908Z,2.9
2023-09-07T17:43:58.872Z,3
2023-09-07T17:47:00.920Z,3.1
2023-09-07T17:50:02.769Z,4.2
2023-09-07T17:53:04.775Z,3.8
2023-09-07T17:56:06.672Z,3.4
2023-09-07T17:59:08.633Z,3.8
2023-09-07T18:02:10.610Z,4.2
2023-09-07T18:05:12.526Z,4.1
2023-09-07T18:08:14.475Z,4.3
2023-09-07T18:11:16.486Z,3.7
2023-09-07T18:14:18.372Z,4.4
2023-09-07T18:17:20.319Z,4.7
2023-09-07T18:20:22.269Z,4.2
2023-09-07T18:23:24.216Z,3.8
2023-09-07T18:26:26.168Z,3.8
2023-09-07T18:29:28.155Z,4.3
2023-09-07T18:32:30.079Z,3.4
2023-09-07T18:35:32.016Z,3.5
2023-09-07T18:38:34.285Z,3.6
2023-09-07T18:41:35.927Z,3.4
2023-09-07T18:44:37.877Z,3.7
2023-09-07T18:47:39.875Z,3.1
2023-09-07T18:50:41.809Z,4.6
2023-09-07T18:53:43.729Z,4
2023-09-07T18:56:45.693Z,4.2
2023-09-07T18:59:47.626Z,3.7
2023-09-07T19:02:49.591Z,4.1
2023-09-07T19:05:51.521Z,3.8
2023-09-07T19:08:53.474Z,3.9
2023-09-07T19:11:55.412Z,4.1
2023-09-07T19:14:57.379Z,3.9
2023-09-07T19:17:59.352Z,3.8
2023-09-07T19:21:12.681Z,3.6
2023-09-07T19:24:03.259Z,4.4
2023-09-07T19:27:05.184Z,3.8
2023-09-07T19:30:07.172Z,4.3
2023-09-07T19:33:09.195Z,4.1
2023-09-07T19:36:12.731Z,4.1
2023-09-07T19:39:13.005Z,4.1
2023-09-07T19:42:14.969Z,4.6
2023-09-07T19:45:16.894Z,4.3
2023-09-07T19:48:18.924Z,4.2
2023-09-07T19:51:20.850Z,4.3
2023-09-07T19:54:22.784Z,4.3
2023-09-07T19:57:24.715Z,4.4
2023-09-07T20:00:26.679Z,4.3
2023-09-07T20:03:28.677Z,4.1
2023-09-07T20:06:30.538Z,4.2
2023-09-07T20:09:32.517Z,4.4
2023-09-07T20:12:34.476Z,4.1
2023-09-07T20:15:36.354Z,4
2023-09-07T20:18:38.566Z,3.8
2023-09-07T20:21:40.254Z,4.1
2023-09-07T20:24:42.250Z,4.4
2023-09-07T20:27:44.293Z,5.2
2023-09-07T20:30:46.128Z,4.5
2023-09-07T20:33:48.204Z,4.7
2023-09-07T20:36:50.085Z,4.7
2023-09-07T20:39:51.994Z,4.8
2023-09-07T20:42:53.954Z,4.2
2023-09-07T20:45:55.931Z,4.5
2023-09-07T20:48:57.938Z,4.9
2023-09-07T20:51:59.810Z,4.7
2023-09-07T20:55:01.766Z,4.6
2023-09-07T20:58:03.733Z,4.4
2023-09-07T21:01:05.759Z,4.1
2023-09-07T21:04:07.607Z,4.3
2023-09-07T21:07:09.562Z,3.8
2023-09-07T21:10:11.536Z,4.1
2023-09-07T21:13:13.484Z,4.3
2023-09-07T21:16:15.479Z,4.4
2023-09-07T21:19:17.367Z,4.3
2023-09-07T21:22:19.328Z,3.8
2023-09-07T21:25:21.281Z,3.8
2023-09-07T21:28:23.251Z,4.4
2023-09-07T21:31:25.234Z,4.3
2023-09-07T21:34:27.165Z,4.3
2023-09-07T21:37:29.123Z,4.3
2023-09-07T21:40:31.063Z,4.2
2023-09-07T21:43:33.031Z,4.2
2023-09-07T21:46:35.277Z,4.1
2023-09-07T21:49:36.916Z,4.6
2023-09-07T21:52:38.947Z,4.1
2023-09-07T21:55:40.845Z,4.1
2023-09-07T21:58:42.767Z,4
2023-09-07T22:01:44.709Z,4.6
2023-09-07T22:04:46.702Z,4.5
2023-09-07T22:07:48.633Z,4.2
2023-09-07T22:10:50.595Z,4.4
2023-09-07T22:13:52.525Z,4.6
2023-09-07T22:16:54.509Z,4.4
2023-09-07T22:19:56.437Z,4.4
2023-09-07T22:22:58.398Z,4
2023-09-07T22:26:00.341Z,3.9
2023-09-07T22:29:02.306Z,4.2
2023-09-07T22:32:04.265Z,4.4
2023-09-07T22:35:06.204Z,3.6
2023-09-07T22:38:08.188Z,3.7
2023-09-07T22:41:10.111Z,5
2023-09-07T22:44:12.106Z,5.1
2023-09-07T22:47:14.045Z,4.4
2023-09-07T22:50:16.038Z,4.2
2023-09-07T22:53:17.985Z,4.2
2023-09-07T22:56:19.949Z,3.9
2023-09-07T22:59:21.906Z,4.1
2023-09-07T23:02:23.878Z,4.3
2023-09-07T23:05:25.807Z,4.6
2023-09-07T23:08:27.740Z,4.2
2023-09-07T23:11:29.732Z,4.8
2023-09-07T23:14:31.684Z,4.7
2023-09-07T23:17:33.659Z,4.3
2023-09-07T23:20:35.619Z,4
2023-09-07T23:23:37.523Z,3.8
2023-09-07T23:26:39.508Z,4.3
2023-09-07T23:29:41.456Z,4.3
2023-09-07T23:32:43.438Z,4.4
2023-09-07T23:35:45.363Z,4.6
2023-09-07T23:38:47.308Z,4.7
2023-09-07T23:41:49.267Z,4.6
2023-09-07T23:44:51.242Z,4
2023-09-07T23:47:53.201Z,4.1
2023-09-07T23:50:55.121Z,4
2023-09-07T23:53:57.080Z,3.9
2023-09-07T23:56:59.031Z,4
